Time;durP1;ratioP1;P1;durP2;ratioP2;P2;SDS_P1;SDS_P2;PMS_P1;PMS_P2;Temp;Humidity;BMP_temperature;BMP_pressure;BME280_temperature;BME280_humidity;BME280_pressure;Samples;Min_cycle;Max_cycle;Signal;HPM_P1;HPM_P2
2022/08/23 00:00:54;;;;;;;6.77;5.80;;;15.30;99.90;;;;;;8348836;28;20193;-69
2022/08/23 00:04:55;;;;;;;7.47;6.07;;;15.30;99.90;;;;;;8356638;28;20192;-69
2022/08/23 00:08:56;;;;;;;8.37;5.57;;;15.30;99.90;;;;;;8347499;28;20236;-69
2022/08/23 00:12:57;;;;;;;10.13;6.90;;;15.30;99.90;;;;;;8357495;28;20327;-69
2022/08/23 00:16:58;;;;;;;8.67;6.40;;;15.30;99.90;;;;;;8351512;28;20213;-69
2022/08/23 00:20:59;;;;;;;8.83;6.53;;;15.30;99.90;;;;;;8349029;28;20210;-69
2022/08/23 00:25:00;;;;;;;7.07;6.00;;;15.30;99.90;;;;;;8357281;28;20197;-72
2022/08/23 00:29:04;;;;;;;9.83;6.43;;;15.30;99.90;;;;;;8350549;28;20178;-68
2022/08/23 00:33:05;;;;;;;7.73;6.43;;;15.30;99.90;;;;;;8350309;28;20238;-68
2022/08/23 00:37:07;;;;;;;7.47;5.97;;;15.30;99.90;;;;;;8348003;28;20185;-68
2022/08/23 00:41:08;;;;;;;8.53;6.03;;;15.40;99.90;;;;;;8353350;28;20209;-70
2022/08/23 00:49:34;;;;;;;7.67;6.50;;;15.40;99.90;;;;;;8349600;28;20193;-69
2022/08/23 00:53:39;;;;;;;10.80;7.13;;;15.40;99.90;;;;;;8347720;28;20186;-70
2022/08/23 00:57:40;;;;;;;14.07;7.27;;;15.40;99.90;;;;;;8347484;28;20194;-69
2022/08/23 01:01:42;;;;;;;10.43;6.90;;;15.40;99.90;;;;;;8354583;28;20339;-69
2022/08/23 01:06:02;;;;;;;10.97;7.60;;;15.40;99.90;;;;;;8347854;28;20178;-69
2022/08/23 01:10:09;;;;;;;10.37;7.27;;;15.40;99.90;;;;;;8365074;28;20182;-68
2022/08/23 01:14:12;;;;;;;9.30;7.70;;;15.40;99.90;;;;;;8355847;28;20227;-69
2022/08/23 01:18:16;;;;;;;9.13;7.03;;;15.40;99.90;;;;;;8349674;28;20201;-70
2022/08/23 01:22:26;;;;;;;7.80;7.00;;;15.40;99.90;;;;;;8354006;28;20206;-70
2022/08/23 01:26:30;;;;;;;10.60;7.20;;;15.40;99.90;;;;;;8347189;28;20493;-69
2022/08/23 01:30:32;;;;;;;10.37;6.93;;;15.40;99.90;;;;;;8348592;28;20402;-70
2022/08/23 01:34:35;;;;;;;12.00;7.23;;;15.50;99.90;;;;;;8347850;28;20200;-70
2022/08/23 01:38:39;;;;;;;10.80;8.03;;;15.50;99.90;;;;;;8349806;28;20185;-69
2022/08/23 01:42:41;;;;;;;15.67;7.77;;;15.50;99.90;;;;;;8349186;28;20228;-70
2022/08/23 01:46:46;;;;;;;10.73;7.47;;;15.50;99.90;;;;;;8337858;28;20189;-69
2022/08/23 01:50:47;;;;;;;13.97;7.80;;;15.50;99.90;;;;;;8346890;28;20182;-75
2022/08/23 01:54:48;;;;;;;11.90;7.97;;;15.50;99.90;;;;;;8346404;28;20220;-69
2022/08/23 01:58:49;;;;;;;6.80;6.10;;;15.50;99.90;;;;;;8342431;28;20211;-69
2022/08/23 02:02:50;;;;;;;10.07;7.20;;;15.50;99.90;;;;;;8349161;28;20223;-70
2022/08/23 02:06:50;;;;;;;9.00;7.17;;;15.60;99.90;;;;;;8346329;28;20186;-70
2022/08/23 02:10:52;;;;;;;8.30;7.00;;;15.60;99.90;;;;;;8348368;28;20300;-70
2022/08/23 02:14:53;;;;;;;10.03;7.50;;;15.60;99.90;;;;;;8346769;28;20192;-70
2022/08/23 02:18:55;;;;;;;12.27;8.03;;;15.60;99.90;;;;;;8346388;28;20204;-70
2022/08/23 02:22:55;;;;;;;13.43;8.00;;;15.60;99.90;;;;;;8346517;28;20209;-69
2022/08/23 02:26:59;;;;;;;9.00;8.00;;;15.60;99.90;;;;;;8348765;28;20181;-71
2022/08/23 02:31:00;;;;;;;15.40;8.57;;;15.60;99.90;;;;;;8349448;28;20445;-70
2022/08/23 02:35:01;;;;;;;11.50;8.30;;;15.60;99.90;;;;;;8358994;28;20281;-70
2022/08/23 02:39:06;;;;;;;9.97;8.30;;;15.60;99.90;;;;;;8344718;28;20281;-70
2022/08/23 02:43:07;;;;;;;14.03;8.13;;;15.60;99.90;;;;;;8344487;28;20239;-70
2022/08/23 02:47:08;;;;;;;9.67;8.13;;;15.60;99.90;;;;;;8344591;28;20242;-70
2022/08/23 02:51:09;;;;;;;9.33;8.43;;;15.60;99.90;;;;;;8352908;28;20259;-69
2022/08/23 02:55:10;;;;;;;11.90;9.27;;;15.60;99.90;;;;;;8350745;28;20189;-70
2022/08/23 02:59:12;;;;;;;10.10;9.03;;;15.60;99.90;;;;;;8351627;28;20221;-71
2022/08/23 03:03:13;;;;;;;10.63;9.47;;;15.60;99.90;;;;;;8355346;28;20205;-72
2022/08/23 03:07:14;;;;;;;11.77;9.50;;;15.60;99.90;;;;;;8356258;28;20190;-69
2022/08/23 03:11:19;;;;;;;10.43;9.23;;;15.60;99.90;;;;;;8352704;28;20288;-70
2022/08/23 03:15:20;;;;;;;12.70;9.03;;;15.60;99.90;;;;;;8349250;28;20194;-71
2022/08/23 03:19:21;;;;;;;10.23;9.23;;;15.70;99.90;;;;;;8355664;28;20208;-71
2022/08/23 03:23:22;;;;;;;10.97;9.40;;;15.70;99.90;;;;;;8352863;28;20689;-70
2022/08/23 03:27:23;;;;;;;10.97;9.73;;;15.70;99.90;;;;;;8353391;28;20221;-71
2022/08/23 03:31:24;;;;;;;12.97;10.30;;;15.70;99.90;;;;;;8354370;28;20186;-70
2022/08/23 03:35:25;;;;;;;12.10;10.00;;;15.70;99.90;;;;;;8353097;28;20235;-70
2022/08/23 03:39:26;;;;;;;12.33;10.63;;;15.70;99.90;;;;;;8350657;28;20522;-73
2022/08/23 03:43:28;;;;;;;12.73;9.80;;;15.70;99.90;;;;;;8351816;28;20235;-71
2022/08/23 03:47:28;;;;;;;12.80;9.30;;;15.70;99.90;;;;;;8352739;28;20739;-70
2022/08/23 03:51:33;;;;;;;10.33;9.30;;;15.80;99.90;;;;;;8348923;28;20181;-70
2022/08/23 03:55:34;;;;;;;9.90;8.97;;;15.80;99.90;;;;;;8364429;28;20440;-70
2022/08/23 03:59:37;;;;;;;11.30;8.70;;;15.80;99.90;;;;;;8349770;28;20199;-71
2022/08/23 04:03:38;;;;;;;10.17;9.17;;;15.80;99.90;;;;;;8350723;28;20292;-70
2022/08/23 04:07:39;;;;;;;11.20;9.40;;;15.80;99.90;;;;;;8351541;28;20201;-70
2022/08/23 04:11:41;;;;;;;9.60;8.63;;;15.80;99.90;;;;;;8353575;28;20210;-70
2022/08/23 04:15:42;;;;;;;10.83;9.43;;;15.90;99.90;;;;;;8353210;28;20213;-72
2022/08/23 04:19:43;;;;;;;9.83;8.40;;;15.90;99.90;;;;;;8351331;28;20185;-70
2022/08/23 04:23:47;;;;;;;10.00;8.37;;;15.90;99.90;;;;;;8349250;28;20217;-70
2022/08/23 04:27:48;;;;;;;9.67;7.83;;;15.90;99.90;;;;;;8366028;28;20183;-71
2022/08/23 04:31:49;;;;;;;9.80;7.60;;;16.00;99.90;;;;;;8348920;28;20220;-70
2022/08/23 04:35:50;;;;;;;8.17;6.60;;;16.00;99.90;;;;;;8350930;28;20189;-70
2022/08/23 04:44:10;;;;;;;12.90;9.17;;;16.10;99.90;;;;;;8346360;28;20244;-70
2022/08/23 04:48:12;;;;;;;10.37;9.30;;;16.00;99.90;;;;;;8347661;28;20417;-71
2022/08/23 04:52:13;;;;;;;15.47;9.83;;;16.00;99.90;;;;;;8349235;28;20213;-70
2022/08/23 04:56:14;;;;;;;12.70;10.20;;;16.00;99.90;;;;;;8348242;28;20174;-71
2022/08/23 05:00:16;;;;;;;13.47;11.97;;;16.00;99.90;;;;;;8350354;28;20186;-69
2022/08/23 05:04:17;;;;;;;14.70;12.30;;;16.00;99.90;;;;;;8347716;28;20213;-70
2022/08/23 05:08:18;;;;;;;13.93;11.80;;;16.00;99.90;;;;;;8347973;28;20232;-72
2022/08/23 05:12:19;;;;;;;12.37;11.07;;;16.00;99.90;;;;;;8351926;28;20236;-71
2022/08/23 05:16:20;;;;;;;13.33;11.93;;;16.00;99.90;;;;;;8351148;28;20196;-72
2022/08/23 05:20:21;;;;;;;14.10;11.13;;;16.00;99.90;;;;;;8353207;28;20188;-71
2022/08/23 05:24:22;;;;;;;13.43;11.47;;;16.00;99.90;;;;;;8346574;28;20232;-72
2022/08/23 05:28:26;;;;;;;14.27;12.47;;;16.00;99.90;;;;;;8348452;28;20194;-72
2022/08/23 05:32:27;;;;;;;13.03;10.57;;;16.00;99.90;;;;;;8348842;28;20183;-71
2022/08/23 05:36:28;;;;;;;9.73;8.83;;;16.00;99.90;;;;;;8346475;28;20208;-72
2022/08/23 05:40:29;;;;;;;13.50;12.13;;;16.10;99.90;;;;;;8352383;28;20245;-71
2022/08/23 05:44:30;;;;;;;13.90;12.50;;;16.10;99.90;;;;;;8354210;28;20205;-71
2022/08/23 05:48:32;;;;;;;13.20;11.90;;;16.10;99.90;;;;;;8348913;28;20261;-72
2022/08/23 05:52:33;;;;;;;13.60;12.07;;;16.10;99.90;;;;;;8347068;28;20265;-71
2022/08/23 05:56:41;;;;;;;12.77;11.57;;;16.10;99.90;;;;;;8348677;28;20235;-72
2022/08/23 06:00:42;;;;;;;13.53;11.60;;;16.10;99.90;;;;;;8349166;28;20217;-71
2022/08/23 06:04:43;;;;;;;12.57;11.17;;;16.20;99.90;;;;;;8347544;28;20205;-70
2022/08/23 06:08:45;;;;;;;14.00;12.20;;;16.20;99.90;;;;;;8348200;28;20211;-71
2022/08/23 06:12:46;;;;;;;13.30;12.00;;;16.20;99.90;;;;;;8358205;28;20205;-71
2022/08/23 06:16:49;;;;;;;14.10;11.77;;;16.20;99.90;;;;;;8350152;28;20201;-72
2022/08/23 06:21:04;;;;;;;14.10;12.70;;;16.20;99.90;;;;;;8351311;28;20185;-71
2022/08/23 06:25:06;;;;;;;13.30;11.70;;;16.20;99.90;;;;;;8355706;28;20178;-71
2022/08/23 06:29:10;;;;;;;13.20;11.90;;;16.30;99.90;;;;;;8359551;28;20232;-71
2022/08/23 06:33:15;;;;;;;13.67;12.37;;;16.30;99.90;;;;;;8354283;28;20181;-73
2022/08/23 06:37:15;;;;;;;12.77;10.73;;;16.40;99.90;;;;;;8352393;28;20182;-69
2022/08/23 06:41:17;;;;;;;11.70;10.50;;;16.50;99.90;;;;;;8359006;28;20182;-71
2022/08/23 06:45:17;;;;;;;11.23;10.20;;;16.50;99.90;;;;;;8351154;28;20186;-71
2022/08/23 06:49:18;;;;;;;11.17;9.83;;;16.70;99.90;;;;;;8352826;28;20178;-71
2022/08/23 06:53:19;;;;;;;9.70;8.83;;;16.90;99.90;;;;;;8350063;28;20182;-70
2022/08/23 06:57:20;;;;;;;8.87;7.87;;;17.00;99.90;;;;;;8354419;28;20182;-70
2022/08/23 07:01:33;;;;;;;7.93;7.13;;;17.00;99.90;;;;;;8351650;28;20386;-70
2022/08/23 07:05:34;;;;;;;7.50;6.63;;;17.10;99.90;;;;;;8351079;28;20182;-68
2022/08/23 07:09:35;;;;;;;7.73;6.10;;;17.20;99.90;;;;;;8354055;28;20208;-71
2022/08/23 07:13:36;;;;;;;5.83;5.33;;;17.20;99.90;;;;;;8352179;28;20209;-70
2022/08/23 07:17:37;;;;;;;6.53;5.93;;;17.40;99.90;;;;;;8365594;28;20194;-69
2022/08/23 07:21:37;;;;;;;6.57;5.93;;;17.40;99.90;;;;;;8351765;28;20205;-70
2022/08/23 07:25:39;;;;;;;6.13;4.63;;;17.30;99.90;;;;;;8359381;28;20184;-69
2022/08/23 07:29:40;;;;;;;5.97;4.70;;;17.30;99.90;;;;;;8362576;28;20190;-69
2022/08/23 07:33:42;;;;;;;6.07;5.57;;;17.30;99.90;;;;;;8351291;28;20200;-70
2022/08/23 07:37:43;;;;;;;5.27;4.83;;;17.30;99.90;;;;;;8351442;28;20185;-70
2022/08/23 07:41:45;;;;;;;6.03;5.53;;;17.40;99.90;;;;;;8350284;28;20232;-70
2022/08/23 07:45:47;;;;;;;5.03;4.63;;;17.40;99.90;;;;;;8365640;28;20177;-73
2022/08/23 07:49:49;;;;;;;5.23;4.73;;;17.40;99.90;;;;;;8349753;28;20182;-70
2022/08/23 07:53:53;;;;;;;4.80;4.40;;;17.40;99.90;;;;;;8349453;28;20174;-71
2022/08/23 07:57:54;;;;;;;5.23;4.73;;;17.50;99.90;;;;;;8354955;28;20209;-72
2022/08/23 08:01:57;;;;;;;6.83;5.37;;;17.50;99.90;;;;;;8351638;28;20209;-71
2022/08/23 08:05:59;;;;;;;5.90;5.40;;;17.50;99.90;;;;;;8353107;28;20184;-70
2022/08/23 08:10:00;;;;;;;5.50;4.40;;;17.50;99.90;;;;;;8352929;28;20198;-71
2022/08/23 08:14:07;;;;;;;5.07;4.40;;;17.60;99.90;;;;;;8353383;28;20210;-71
2022/08/23 08:18:08;;;;;;;4.70;4.30;;;17.70;99.90;;;;;;8355739;28;20198;-71
2022/08/23 08:22:09;;;;;;;4.60;4.20;;;17.70;99.90;;;;;;8352188;28;20233;-71
2022/08/23 08:26:10;;;;;;;4.07;3.63;;;17.70;99.90;;;;;;8355143;28;20186;-70
2022/08/23 08:30:11;;;;;;;3.90;3.50;;;17.70;99.90;;;;;;8352792;28;20170;-70
2022/08/23 08:34:12;;;;;;;4.63;4.23;;;17.70;99.90;;;;;;8346375;28;20220;-70
2022/08/23 08:38:13;;;;;;;5.00;4.60;;;17.80;99.90;;;;;;8347102;28;20192;-70
2022/08/23 08:42:14;;;;;;;6.03;5.20;;;17.80;99.90;;;;;;8349127;28;20209;-70
2022/08/23 08:46:41;;;;;;;5.73;5.23;;;17.70;99.90;;;;;;8348276;28;20181;-70
2022/08/23 08:50:50;;;;;;;5.33;4.80;;;17.70;99.90;;;;;;8341523;28;20185;-70
2022/08/23 08:55:17;;;;;;;3.17;2.87;;;17.70;99.90;;;;;;8359972;28;20186;-70
2022/08/23 08:59:46;;;;;;;3.80;3.50;;;17.70;99.90;;;;;;8347568;28;20201;-69
2022/08/23 09:03:47;;;;;;;3.57;3.27;;;17.70;99.90;;;;;;8373317;28;20218;-68
2022/08/23 09:08:24;;;;;;;3.80;3.50;;;17.70;99.90;;;;;;8350125;28;20227;-70
2022/08/23 09:12:31;;;;;;;4.23;3.80;;;17.70;99.90;;;;;;8355909;28;20281;-70
2022/08/23 09:16:50;;;;;;;3.37;3.07;;;17.80;99.90;;;;;;8349380;28;20196;-72
2022/08/23 09:20:54;;;;;;;4.00;3.60;;;17.90;99.90;;;;;;8349717;28;20182;-69
2022/08/23 09:24:57;;;;;;;3.80;3.50;;;17.90;99.90;;;;;;8349495;28;20214;-71
2022/08/23 09:29:15;;;;;;;3.73;3.00;;;17.80;99.90;;;;;;8346981;28;20185;-70
2022/08/23 09:33:19;;;;;;;3.53;3.00;;;17.80;99.90;;;;;;8357907;28;20174;-69
2022/08/23 09:37:23;;;;;;;3.60;3.30;;;17.70;99.90;;;;;;8341481;28;20186;-70
2022/08/23 09:41:47;;;;;;;3.90;3.60;;;17.60;99.90;;;;;;8341499;28;20186;-71
2022/08/23 09:45:48;;;;;;;3.73;3.33;;;17.60;99.90;;;;;;8347385;28;20235;-70
2022/08/23 09:49:50;;;;;;;4.13;3.83;;;17.70;99.90;;;;;;8348015;28;20186;-69
2022/08/23 09:54:16;;;;;;;5.00;4.50;;;17.70;99.90;;;;;;8347617;28;20217;-70
2022/08/23 09:58:17;;;;;;;4.63;3.73;;;17.70;99.90;;;;;;8383999;28;20185;-72
2022/08/23 10:02:30;;;;;;;5.77;5.37;;;17.80;99.90;;;;;;8346369;28;20240;-69
2022/08/23 10:06:33;;;;;;;4.87;4.40;;;17.90;99.90;;;;;;8348432;28;20193;-70
2022/08/23 10:10:45;;;;;;;5.70;5.20;;;17.90;99.90;;;;;;8355562;28;20178;-70
2022/08/23 10:14:46;;;;;;;5.43;4.93;;;18.00;99.90;;;;;;8356080;28;20185;-71
2022/08/23 10:18:56;;;;;;;6.40;5.70;;;18.00;99.90;;;;;;8358698;28;20256;-74
2022/08/23 10:23:18;;;;;;;6.13;5.63;;;18.10;99.90;;;;;;8373100;28;20218;-70
2022/08/23 10:32:25;;;;;;;5.63;5.13;;;18.10;99.90;;;;;;8357187;28;20220;-72
2022/08/23 10:36:30;;;;;;;5.07;4.57;;;18.20;99.90;;;;;;8372911;28;20186;-70
2022/08/23 10:40:44;;;;;;;5.03;4.53;;;18.20;99.90;;;;;;8356416;28;20182;-70
2022/08/23 10:44:57;;;;;;;4.60;4.20;;;18.30;99.90;;;;;;8324330;28;20248;-71
2022/08/23 10:49:00;;;;;;;4.10;3.70;;;18.30;99.90;;;;;;8357179;28;20236;-70
2022/08/23 10:53:13;;;;;;;4.27;3.97;;;18.50;99.90;;;;;;8357635;28;20189;-70
2022/08/23 10:57:16;;;;;;;3.80;3.50;;;18.70;99.90;;;;;;8356299;28;20174;-71
2022/08/23 11:01:23;;;;;;;3.90;3.50;;;18.80;99.90;;;;;;8356453;28;20213;-70
2022/08/23 11:05:30;;;;;;;2.90;2.70;;;18.90;99.90;;;;;;8373891;28;20186;-72
2022/08/23 11:09:44;;;;;;;2.53;2.33;;;19.10;99.90;;;;;;8350172;28;20184;-71
2022/08/23 11:13:52;;;;;;;3.07;2.87;;;19.20;99.90;;;;;;8387174;28;20214;-70
2022/08/23 11:17:56;;;;;;;2.83;2.63;;;19.20;99.90;;;;;;8366749;28;20197;-70
2022/08/23 11:22:16;;;;;;;2.50;2.30;;;19.30;99.90;;;;;;8352784;28;20216;-70
2022/08/23 11:26:26;;;;;;;2.40;2.20;;;19.20;99.90;;;;;;8371783;28;20243;-70
2022/08/23 11:30:36;;;;;;;2.93;2.63;;;19.10;99.90;;;;;;8345062;28;20181;-69
2022/08/23 11:34:54;;;;;;;2.53;2.33;;;19.10;99.90;;;;;;8366891;28;20193;-70
2022/08/23 11:38:54;;;;;;;2.50;2.30;;;19.00;99.90;;;;;;8351128;28;20190;-70
2022/08/23 11:43:05;;;;;;;3.10;2.80;;;19.00;99.90;;;;;;8353666;28;20213;-68
2022/08/23 11:47:09;;;;;;;3.00;2.80;;;19.10;99.90;;;;;;8354473;28;20186;-70
2022/08/23 11:51:16;;;;;;;3.70;3.20;;;19.10;99.90;;;;;;8335192;28;20215;-70
2022/08/23 11:55:20;;;;;;;3.43;2.87;;;19.10;99.90;;;;;;8351433;28;20174;-69
2022/08/23 11:59:30;;;;;;;3.57;3.30;;;19.10;99.90;;;;;;8351273;28;20470;-69
2022/08/23 12:03:35;;;;;;;4.03;3.73;;;19.10;99.90;;;;;;8349603;28;20203;-70
2022/08/23 12:08:05;;;;;;;4.40;4.03;;;19.00;99.90;;;;;;8345168;28;20212;-71
2022/08/23 12:12:29;;;;;;;4.30;3.90;;;19.00;99.90;;;;;;8327457;28;20214;-69
2022/08/23 12:16:33;;;;;;;4.13;3.73;;;18.90;99.90;;;;;;8351479;28;20231;-70
2022/08/23 12:20:36;;;;;;;4.93;4.13;;;18.90;99.90;;;;;;8352892;28;20193;-70
2022/08/23 12:24:47;;;;;;;4.90;4.50;;;18.90;99.90;;;;;;8352555;28;20312;-70
2022/08/23 12:29:05;;;;;;;5.67;5.20;;;18.80;99.90;;;;;;8349922;28;20235;-69
2022/08/23 12:33:18;;;;;;;5.60;5.20;;;18.80;99.90;;;;;;8371845;28;20297;-70
2022/08/23 12:37:27;;;;;;;5.90;5.40;;;18.90;99.90;;;;;;8340282;28;20206;-70
2022/08/23 12:41:34;;;;;;;6.80;6.20;;;18.90;99.90;;;;;;8348992;28;20186;-70
2022/08/23 12:45:42;;;;;;;5.83;5.33;;;19.00;99.90;;;;;;8350271;28;20257;-70
2022/08/23 12:50:02;;;;;;;5.93;5.43;;;19.00;99.90;;;;;;8358286;28;20181;-70
2022/08/23 12:54:14;;;;;;;6.33;5.83;;;18.90;99.90;;;;;;8347801;28;20182;-70
2022/08/23 12:58:28;;;;;;;6.20;5.70;;;18.90;99.90;;;;;;8357975;28;20221;-69
2022/08/23 13:02:32;;;;;;;6.77;6.17;;;18.90;99.90;;;;;;8356698;28;20204;-69
2022/08/23 13:06:57;;;;;;;6.50;5.90;;;18.90;99.90;;;;;;8360409;28;20213;-68
2022/08/23 13:10:58;;;;;;;7.73;7.03;;;18.90;99.90;;;;;;8376182;28;20200;-69
2022/08/23 13:15:01;;;;;;;8.93;8.03;;;18.80;99.90;;;;;;8349863;28;20195;-69
2022/08/23 13:19:14;;;;;;;7.33;6.53;;;18.80;99.90;;;;;;8365280;28;20288;-69
2022/08/23 13:23:27;;;;;;;7.07;6.47;;;18.90;99.90;;;;;;8352500;28;20302;-69
2022/08/23 13:27:43;;;;;;;6.83;6.17;;;18.90;99.90;;;;;;8348879;28;20186;-70
2022/08/23 13:32:04;;;;;;;6.27;5.57;;;19.00;99.90;;;;;;8363408;28;20220;-69
2022/08/23 13:36:19;;;;;;;5.93;5.43;;;19.10;99.90;;;;;;8349649;28;20186;-71
2022/08/23 13:40:24;;;;;;;5.70;5.10;;;19.10;99.90;;;;;;8348792;28;20236;-70
2022/08/23 13:44:26;;;;;;;5.60;5.00;;;19.10;99.90;;;;;;8346088;28;20318;-70
2022/08/23 13:48:32;;;;;;;6.83;6.23;;;19.10;99.90;;;;;;8346120;28;20244;-70
2022/08/23 13:52:35;;;;;;;5.23;4.77;;;19.20;99.90;;;;;;8347017;28;20324;-68
2022/08/23 13:56:44;;;;;;;4.63;4.27;;;19.30;99.90;;;;;;8349053;28;20182;-70
2022/08/23 14:00:46;;;;;;;4.60;4.20;;;19.30;99.90;;;;;;8348756;28;20199;-70
2022/08/23 14:04:47;;;;;;;6.70;4.70;;;19.40;99.90;;;;;;8355028;28;20214;-69
2022/08/23 14:08:49;;;;;;;4.60;4.20;;;19.30;99.90;;;;;;8346418;28;20192;-70
2022/08/23 14:12:52;;;;;;;4.77;4.37;;;19.30;99.90;;;;;;8383156;28;20248;-69
2022/08/23 14:16:54;;;;;;;4.10;3.80;;;19.30;99.90;;;;;;8338767;28;20205;-69
2022/08/23 14:20:55;;;;;;;4.37;3.97;;;19.20;99.90;;;;;;8347549;28;20194;-68
2022/08/23 14:24:56;;;;;;;3.87;3.57;;;19.30;99.90;;;;;;8367099;28;20357;-69
2022/08/23 14:28:57;;;;;;;3.40;3.10;;;19.20;99.90;;;;;;8348920;28;20276;-68
2022/08/23 14:32:59;;;;;;;3.03;2.83;;;19.20;99.90;;;;;;8344215;28;20204;-67
2022/08/23 14:37:00;;;;;;;4.40;4.00;;;19.20;99.90;;;;;;8349797;28;20189;-68
2022/08/23 14:41:04;;;;;;;4.00;3.60;;;19.20;99.90;;;;;;8348615;28;20189;-69
2022/08/23 14:45:07;;;;;;;3.97;3.27;;;19.20;99.90;;;;;;8365992;28;20244;-68
2022/08/23 14:49:08;;;;;;;3.80;3.43;;;19.20;99.90;;;;;;8352122;28;20186;-69
2022/08/23 14:53:10;;;;;;;3.50;3.20;;;19.30;99.90;;;;;;8350954;28;20191;-68
2022/08/23 14:57:11;;;;;;;3.30;3.10;;;19.30;99.90;;;;;;8353144;28;20189;-68
2022/08/23 15:01:12;;;;;;;3.57;3.20;;;19.30;99.90;;;;;;8353538;28;20186;-67
2022/08/23 15:05:14;;;;;;;3.80;3.50;;;19.30;99.90;;;;;;8352225;28;20210;-68
2022/08/23 15:09:15;;;;;;;4.17;3.87;;;19.30;99.90;;;;;;8351377;28;20510;-69
2022/08/23 15:13:16;;;;;;;4.10;3.80;;;19.30;99.90;;;;;;8350037;28;20217;-69
2022/08/23 15:17:17;;;;;;;3.60;3.30;;;19.20;99.90;;;;;;8352722;28;20208;-68
2022/08/23 15:21:19;;;;;;;4.63;3.63;;;19.10;99.90;;;;;;8349626;28;20182;-70
2022/08/23 15:25:20;;;;;;;4.40;4.00;;;19.10;99.90;;;;;;8353000;28;20252;-68
2022/08/23 15:29:21;;;;;;;4.57;4.10;;;19.00;99.90;;;;;;8350639;28;20253;-70
2022/08/23 15:33:22;;;;;;;4.47;4.07;;;19.10;99.90;;;;;;8354887;28;20189;-68
2022/08/23 15:37:23;;;;;;;4.20;3.90;;;19.10;99.90;;;;;;8349506;28;20213;-69
2022/08/23 15:41:23;;;;;;;4.07;3.67;;;19.10;99.90;;;;;;8351410;28;20190;-68
2022/08/23 15:45:25;;;;;;;4.27;3.97;;;19.10;99.90;;;;;;8352032;28;20216;-71
2022/08/23 15:49:27;;;;;;;4.03;3.73;;;19.10;99.90;;;;;;8349469;28;20181;-68
2022/08/23 15:53:28;;;;;;;5.43;3.90;;;19.10;99.90;;;;;;8344602;28;20205;-69
2022/08/23 15:57:30;;;;;;;4.33;4.03;;;19.00;99.90;;;;;;8349824;28;20190;-69
2022/08/23 16:01:32;;;;;;;3.70;3.40;;;19.10;99.90;;;;;;8349355;28;20271;-70
2022/08/23 16:05:34;;;;;;;3.70;3.40;;;19.10;99.90;;;;;;8347206;28;20178;-69
2022/08/23 16:09:35;;;;;;;4.43;3.80;;;19.10;99.90;;;;;;8352216;28;20535;-69
2022/08/23 16:13:41;;;;;;;4.57;3.80;;;19.10;99.90;;;;;;8348805;28;20690;-69
2022/08/23 16:17:42;;;;;;;4.47;4.07;;;19.10;99.90;;;;;;8346629;28;20205;-69
2022/08/23 16:21:44;;;;;;;5.37;4.87;;;19.00;99.90;;;;;;8350002;28;20296;-71
2022/08/23 16:25:46;;;;;;;4.60;4.20;;;19.00;99.90;;;;;;8349142;28;20189;-68
2022/08/23 16:29:48;;;;;;;4.37;4.07;;;19.00;99.90;;;;;;8350563;28;20190;-69
2022/08/23 16:33:49;;;;;;;4.80;3.77;;;19.00;99.90;;;;;;8344437;28;20185;-69
2022/08/23 16:37:50;;;;;;;5.23;4.80;;;19.00;99.90;;;;;;8348711;28;20596;-69
2022/08/23 16:41:52;;;;;;;4.77;4.37;;;19.00;99.90;;;;;;8358235;28;20209;-69
2022/08/23 16:45:53;;;;;;;5.07;4.63;;;19.10;99.90;;;;;;8347515;28;20187;-69
2022/08/23 16:49:56;;;;;;;5.53;5.03;;;19.00;99.90;;;;;;8351970;28;20181;-69
2022/08/23 16:53:57;;;;;;;6.33;5.67;;;19.00;99.90;;;;;;8347947;28;20190;-68
2022/08/23 16:57:58;;;;;;;5.67;5.07;;;19.00;99.90;;;;;;8349109;28;20189;-69
2022/08/23 17:02:01;;;;;;;5.97;5.47;;;19.00;99.90;;;;;;8347200;28;20284;-67
2022/08/23 17:06:01;;;;;;;6.10;5.50;;;19.00;99.90;;;;;;8350784;28;20201;-69
2022/08/23 17:10:03;;;;;;;6.43;5.83;;;18.90;99.90;;;;;;8355951;28;20173;-68
2022/08/23 17:14:05;;;;;;;7.03;6.43;;;18.90;99.90;;;;;;8344249;28;20213;-68
2022/08/23 17:18:07;;;;;;;7.30;6.70;;;18.90;99.90;;;;;;8350153;28;20212;-69
2022/08/23 17:22:09;;;;;;;5.87;5.37;;;18.90;99.90;;;;;;8350082;28;20213;-69
2022/08/23 17:26:10;;;;;;;5.87;5.43;;;18.90;99.90;;;;;;8350399;28;20177;-68
2022/08/23 17:30:13;;;;;;;6.23;5.67;;;18.90;99.90;;;;;;8351229;28;20218;-68
2022/08/23 17:34:14;;;;;;;5.80;5.30;;;18.90;99.90;;;;;;8358393;28;20215;-68
2022/08/23 17:38:15;;;;;;;7.90;7.20;;;18.90;99.90;;;;;;8347379;28;20198;-69
2022/08/23 17:42:17;;;;;;;8.30;7.50;;;18.90;99.90;;;;;;8346210;28;20214;-69
2022/08/23 17:46:17;;;;;;;7.27;6.67;;;18.90;99.90;;;;;;8348782;28;20269;-69
2022/08/23 17:50:19;;;;;;;7.67;6.97;;;18.90;99.90;;;;;;8348092;28;20182;-68
2022/08/23 17:54:20;;;;;;;8.20;7.20;;;18.90;99.90;;;;;;8342182;28;20210;-68
2022/08/23 17:58:21;;;;;;;8.20;7.50;;;18.80;99.90;;;;;;8345974;28;20197;-70
2022/08/23 18:02:22;;;;;;;9.53;8.13;;;18.80;99.90;;;;;;8347018;28;20208;-69
2022/08/23 18:06:24;;;;;;;8.87;7.60;;;18.80;99.90;;;;;;8348533;28;20187;-69
2022/08/23 18:10:25;;;;;;;8.57;7.70;;;18.80;99.90;;;;;;8348135;28;20182;-69
2022/08/23 18:14:26;;;;;;;10.40;9.40;;;18.80;99.90;;;;;;8362829;28;20206;-71
2022/08/23 18:18:29;;;;;;;15.10;11.93;;;18.80;99.90;;;;;;8351305;28;20452;-70
2022/08/23 18:22:29;;;;;;;11.73;9.53;;;18.80;99.90;;;;;;8355002;28;20228;-69
2022/08/23 18:30:56;;;;;;;10.10;9.00;;;18.80;99.90;;;;;;8356220;28;20231;-69
2022/08/23 18:34:57;;;;;;;10.23;8.33;;;18.80;99.90;;;;;;8354971;28;20222;-69
2022/08/23 18:38:58;;;;;;;8.77;7.97;;;18.90;99.90;;;;;;8353350;28;20189;-69
2022/08/23 18:42:59;;;;;;;8.37;7.53;;;18.80;99.90;;;;;;8353399;28;20201;-69
2022/08/23 18:47:03;;;;;;;7.90;6.90;;;18.90;99.90;;;;;;8354342;28;20181;-69
2022/08/23 18:51:06;;;;;;;7.27;6.57;;;18.90;99.90;;;;;;8352958;28;20174;-69
2022/08/23 18:55:07;;;;;;;7.77;6.97;;;18.90;99.90;;;;;;8351843;28;20194;-69
2022/08/23 18:59:08;;;;;;;9.30;8.33;;;18.90;99.90;;;;;;8353581;28;20208;-69
2022/08/23 19:03:09;;;;;;;9.77;8.47;;;18.90;99.90;;;;;;8353599;28;20528;-69
2022/08/23 19:07:11;;;;;;;10.20;8.57;;;19.00;99.90;;;;;;8353853;28;20490;-69
2022/08/23 19:11:12;;;;;;;11.00;9.90;;;19.00;99.90;;;;;;8349694;28;20206;-69
2022/08/23 19:15:13;;;;;;;12.63;9.87;;;19.00;99.90;;;;;;8351281;28;20182;-69
2022/08/23 19:19:14;;;;;;;10.00;8.30;;;19.00;99.90;;;;;;8369125;28;20197;-69
2022/08/23 19:23:16;;;;;;;11.63;9.53;;;18.90;99.90;;;;;;8352471;28;20324;-69
2022/08/23 19:27:17;;;;;;;11.47;9.17;;;19.00;99.90;;;;;;8355278;28;20620;-69
2022/08/23 19:31:18;;;;;;;10.00;9.00;;;18.90;99.90;;;;;;8352116;28;20185;-70
2022/08/23 19:35:22;;;;;;;9.00;8.10;;;19.00;99.90;;;;;;8353986;28;20272;-69
2022/08/23 19:39:23;;;;;;;10.23;8.10;;;19.00;99.90;;;;;;8355999;28;20257;-69
2022/08/23 19:43:25;;;;;;;10.00;9.00;;;18.90;99.90;;;;;;8355773;28;20225;-69
2022/08/23 19:47:26;;;;;;;13.93;11.97;;;18.80;99.90;;;;;;8363634;28;20254;-69
2022/08/23 19:51:27;;;;;;;11.97;10.70;;;18.80;99.90;;;;;;8362138;28;20190;-70
2022/08/23 19:55:30;;;;;;;12.13;10.90;;;18.80;99.90;;;;;;8362377;28;20182;-69
2022/08/23 19:59:35;;;;;;;10.43;9.33;;;18.80;99.90;;;;;;8363929;28;20210;-69
2022/08/23 20:03:36;;;;;;;10.70;9.60;;;18.90;99.90;;;;;;8370567;28;20206;-68
2022/08/23 20:07:38;;;;;;;16.97;14.67;;;18.90;99.90;;;;;;8360413;28;20212;-69
2022/08/23 20:11:39;;;;;;;20.27;16.33;;;18.90;99.90;;;;;;8359275;28;20194;-69
2022/08/23 20:15:40;;;;;;;29.13;19.83;;;18.90;99.90;;;;;;8366425;28;20203;-70
2022/08/23 20:19:41;;;;;;;31.23;21.20;;;18.80;99.90;;;;;;8359671;28;20192;-69
2022/08/23 20:24:01;;;;;;;38.97;21.63;;;18.80;99.90;;;;;;8360847;28;20237;-70
2022/08/23 20:28:06;;;;;;;28.80;20.40;;;18.80;99.90;;;;;;8355475;28;20190;-69
2022/08/23 20:32:07;;;;;;;26.83;19.50;;;18.80;99.90;;;;;;8359588;28;20229;-69
2022/08/23 20:36:08;;;;;;;20.60;16.47;;;18.80;99.90;;;;;;8358722;28;20217;-69
2022/08/23 20:40:09;;;;;;;20.17;14.63;;;18.80;99.90;;;;;;8362275;28;20181;-69
2022/08/23 20:44:10;;;;;;;28.87;20.87;;;18.80;99.90;;;;;;8362941;28;20205;-70
2022/08/23 20:48:11;;;;;;;26.27;20.60;;;18.80;99.90;;;;;;8362809;28;20653;-69
2022/08/23 20:52:12;;;;;;;23.83;19.33;;;18.80;99.90;;;;;;8357399;28;20188;-69
2022/08/23 20:56:14;;;;;;;28.93;21.93;;;18.80;99.90;;;;;;8362740;28;20223;-70
2022/08/23 21:00:16;;;;;;;24.77;19.33;;;18.80;99.90;;;;;;8362293;28;20182;-68
2022/08/23 21:04:18;;;;;;;17.53;15.17;;;18.80;99.90;;;;;;8349469;28;20216;-68
2022/08/23 21:08:19;;;;;;;16.47;13.60;;;18.90;99.90;;;;;;8359651;28;20243;-69
2022/08/23 21:12:19;;;;;;;14.90;12.43;;;18.90;99.90;;;;;;8350270;28;20209;-70
2022/08/23 21:16:21;;;;;;;14.97;13.40;;;18.90;99.90;;;;;;8353418;28;20289;-68